createdAt,value
2018-07-13T00:00:16.831Z,100.00
2018-07-13T00:02:45.589Z,100.00
2018-07-13T00:05:14.290Z,100.00
2018-07-13T00:07:42.998Z,100.00
2018-07-13T00:10:11.804Z,100.00
2018-07-13T00:12:40.508Z,100.00
2018-07-13T00:15:10.553Z,100.00
2018-07-13T00:17:39.517Z,100.00
2018-07-13T00:20:08.580Z,100.00
2018-07-13T00:22:37.293Z,100.00
2018-07-13T00:25:06.034Z,100.00
2018-07-13T00:27:34.736Z,100.00
2018-07-13T00:30:03.481Z,100.00
2018-07-13T00:32:32.207Z,100.00
2018-07-13T00:35:00.961Z,100.00
2018-07-13T00:37:29.684Z,100.00
2018-07-13T00:39:58.554Z,100.00
2018-07-13T00:42:27.266Z,100.00
2018-07-13T00:44:56.115Z,100.00
2018-07-13T00:47:24.830Z,100.00
2018-07-13T00:49:53.524Z,100.00
2018-07-13T00:52:22.360Z,100.00
2018-07-13T00:54:51.065Z,100.00
2018-07-13T00:57:19.778Z,100.00
2018-07-13T00:59:48.605Z,100.00
2018-07-13T01:02:17.315Z,100.00
2018-07-13T01:04:46.060Z,100.00
2018-07-13T01:07:14.790Z,100.00
2018-07-13T01:09:43.538Z,100.00
2018-07-13T01:12:12.258Z,100.00
2018-07-13T01:14:40.985Z,100.00
2018-07-13T01:17:09.709Z,100.00
2018-07-13T01:19:38.418Z,100.00
2018-07-13T01:22:07.129Z,100.00
2018-07-13T01:24:35.881Z,100.00
2018-07-13T01:27:04.578Z,100.00
2018-07-13T01:29:33.311Z,100.00
2018-07-13T01:32:02.040Z,100.00
2018-07-13T01:34:30.833Z,100.00
2018-07-13T01:36:59.573Z,100.00
2018-07-13T01:39:28.255Z,100.00
2018-07-13T01:41:56.942Z,100.00
2018-07-13T01:44:25.697Z,100.00
2018-07-13T01:46:54.392Z,100.00
2018-07-13T01:49:23.099Z,100.00
2018-07-13T01:51:51.811Z,100.00
2018-07-13T01:54:20.528Z,100.00
2018-07-13T01:56:49.227Z,100.00
2018-07-13T01:59:17.931Z,100.00
2018-07-13T02:01:46.675Z,100.00
2018-07-13T02:04:15.518Z,100.00
2018-07-13T02:06:44.358Z,100.00
2018-07-13T02:09:13.069Z,100.00
2018-07-13T02:11:41.782Z,100.00
2018-07-13T02:14:10.481Z,100.00
2018-07-13T02:16:39.177Z,100.00
2018-07-13T02:19:08.103Z,100.00
2018-07-13T02:21:36.838Z,100.00
2018-07-13T02:24:05.541Z,100.00
2018-07-13T02:26:34.250Z,100.00
2018-07-13T02:29:02.958Z,100.00
2018-07-13T02:31:31.683Z,100.00
2018-07-13T02:34:00.468Z,100.00
2018-07-13T02:36:29.149Z,100.00
2018-07-13T02:38:58.142Z,100.00
2018-07-13T02:41:27.005Z,100.00
2018-07-13T02:43:55.715Z,100.00
2018-07-13T02:46:24.453Z,100.00
2018-07-13T02:48:53.184Z,100.00
2018-07-13T02:51:21.927Z,100.00
2018-07-13T02:53:50.703Z,100.00
2018-07-13T02:56:19.457Z,100.00
2018-07-13T02:58:48.311Z,100.00
2018-07-13T03:01:17.155Z,100.00
2018-07-13T03:03:45.854Z,100.00
2018-07-13T03:06:14.551Z,100.00
2018-07-13T03:08:43.318Z,100.00
2018-07-13T03:11:12.081Z,100.00
2018-07-13T03:13:40.773Z,100.00
2018-07-13T03:16:09.472Z,100.00
2018-07-13T03:18:38.193Z,100.00
2018-07-13T03:21:06.938Z,100.00
2018-07-13T03:23:35.719Z,100.00
2018-07-13T03:26:04.457Z,100.00
2018-07-13T03:28:33.210Z,100.00
2018-07-13T03:31:01.941Z,100.00
2018-07-13T03:33:30.693Z,100.00
2018-07-13T03:35:59.458Z,100.00
2018-07-13T03:38:28.268Z,100.00
2018-07-13T03:40:56.920Z,100.00
2018-07-13T03:43:25.634Z,98.66
2018-07-13T03:45:54.331Z,90.96
2018-07-13T03:48:23.084Z,81.41
2018-07-13T03:50:51.826Z,76.62
2018-07-13T03:53:20.540Z,71.94
2018-07-13T03:55:49.241Z,66.32
2018-07-13T03:58:17.958Z,62.05
2018-07-13T04:00:46.639Z,58.31
2018-07-13T04:03:15.330Z,54.59
2018-07-13T04:05:44.021Z,52.68
2018-07-13T04:08:12.709Z,50.88
2018-07-13T04:10:41.401Z,50.55
2018-07-13T04:13:10.174Z,48.97
2018-07-13T04:15:38.894Z,48.03
2018-07-13T04:18:12.057Z,49.93
2018-07-13T04:20:40.778Z,50.91
2018-07-13T04:23:09.501Z,48.76
2018-07-13T04:25:38.209Z,46.09
2018-07-13T04:28:06.929Z,45.05
2018-07-13T04:30:35.678Z,43.39
2018-07-13T04:33:04.406Z,42.11
2018-07-13T04:35:33.102Z,40.55
2018-07-13T04:38:01.856Z,41.15
2018-07-13T04:40:30.577Z,41.76
2018-07-13T04:42:59.354Z,41.20
2018-07-13T04:45:28.070Z,41.48
2018-07-13T04:47:56.787Z,39.89
2018-07-13T04:50:25.728Z,41.54
2018-07-13T04:52:54.772Z,39.09
2018-07-13T04:55:23.648Z,38.24
2018-07-13T04:57:52.464Z,36.70
2018-07-13T05:00:21.800Z,37.03
2018-07-13T05:02:50.561Z,37.96
2018-07-13T05:05:19.279Z,36.77
2018-07-13T05:07:47.985Z,35.79
2018-07-13T05:10:16.718Z,35.10
2018-07-13T05:12:45.421Z,35.45
2018-07-13T05:15:14.121Z,32.62
2018-07-13T05:17:42.829Z,33.27
2018-07-13T05:20:11.565Z,32.33
2018-07-13T05:22:40.294Z,35.83
2018-07-13T05:25:09.613Z,38.11
2018-07-13T05:27:38.317Z,37.71
2018-07-13T05:30:07.578Z,35.87
2018-07-13T05:32:36.593Z,36.25
2018-07-13T05:35:05.355Z,34.62
2018-07-13T05:37:34.185Z,33.19
2018-07-13T05:40:04.093Z,32.06
2018-07-13T05:42:32.801Z,32.80
2018-07-13T05:45:01.529Z,33.16
2018-07-13T05:47:30.481Z,32.45
2018-07-13T05:49:59.190Z,33.40
2018-07-13T05:52:28.082Z,32.29
2018-07-13T05:54:57.779Z,32.76
2018-07-13T05:57:26.473Z,31.68
2018-07-13T05:59:55.268Z,31.47
2018-07-13T06:02:24.044Z,33.97
2018-07-13T06:04:52.746Z,32.19
2018-07-13T06:07:21.453Z,33.08
2018-07-13T06:09:50.298Z,31.66
2018-07-13T06:12:18.984Z,34.84
2018-07-13T06:14:47.842Z,32.35
2018-07-13T06:17:16.465Z,31.73
2018-07-13T06:19:45.189Z,30.49
2018-07-13T06:22:13.921Z,31.47
2018-07-13T06:24:42.677Z,31.13
2018-07-13T06:27:11.621Z,32.13
2018-07-13T06:29:40.327Z,29.00
2018-07-13T06:32:09.051Z,29.46
2018-07-13T06:34:37.770Z,29.39
2018-07-13T06:37:06.645Z,30.47
2018-07-13T06:39:35.354Z,31.45
2018-07-13T06:42:04.119Z,32.23
2018-07-13T06:44:32.840Z,34.04
2018-07-13T06:47:01.554Z,34.19
2018-07-13T06:49:30.342Z,37.07
2018-07-13T06:51:59.069Z,40.62
2018-07-13T06:54:27.794Z,40.38
2018-07-13T06:56:56.531Z,40.09
2018-07-13T06:59:25.278Z,38.78
2018-07-13T07:01:53.985Z,35.57
2018-07-13T07:04:26.269Z,34.63
2018-07-13T07:06:55.679Z,34.14
2018-07-13T07:09:25.113Z,33.99
2018-07-13T07:12:16.942Z,33.97
2018-07-13T07:14:45.797Z,34.01
2018-07-13T07:17:14.584Z,33.60
2018-07-13T07:19:43.422Z,31.95
2018-07-13T07:22:12.259Z,31.86
2018-07-13T07:24:40.974Z,29.47
2018-07-13T07:27:09.729Z,31.70
2018-07-13T07:29:38.540Z,32.21
2018-07-13T07:32:07.443Z,33.25
2018-07-13T07:34:36.284Z,32.42
2018-07-13T07:37:05.157Z,32.51
2018-07-13T07:39:34.092Z,31.92
2018-07-13T07:42:02.797Z,34.03
2018-07-13T07:44:31.538Z,31.89
2018-07-13T07:47:00.246Z,32.06
2018-07-13T07:49:28.950Z,31.37
2018-07-13T07:51:57.688Z,30.43
2018-07-13T07:54:26.391Z,30.16
2018-07-13T07:56:55.149Z,29.64
2018-07-13T07:59:23.864Z,31.50
2018-07-13T08:01:52.587Z,31.86
2018-07-13T08:04:21.318Z,31.50
2018-07-13T08:06:50.248Z,30.51
2018-07-13T08:09:18.842Z,32.21
2018-07-13T08:11:47.549Z,32.86
2018-07-13T08:14:16.643Z,31.68
2018-07-13T08:16:45.132Z,31.92
2018-07-13T08:19:14.117Z,32.46
2018-07-13T08:21:44.703Z,32.49
2018-07-13T08:24:19.806Z,33.40
2018-07-13T08:26:49.578Z,30.61
2018-07-13T08:29:20.895Z,32.27
2018-07-13T08:31:50.978Z,28.90
2018-07-13T08:34:21.903Z,29.20
2018-07-13T08:36:50.816Z,30.17
2018-07-13T08:39:19.570Z,29.27
2018-07-13T08:41:48.659Z,29.76
2018-07-13T08:44:17.572Z,29.46
2018-07-13T08:46:46.440Z,31.38
2018-07-13T08:49:15.406Z,32.02
2018-07-13T08:51:44.910Z,30.27
2018-07-13T08:54:13.718Z,32.14
2018-07-13T08:56:44.149Z,32.93
2018-07-13T08:59:13.633Z,31.35
2018-07-13T09:01:42.563Z,32.29
2018-07-13T09:04:11.339Z,33.10
2018-07-13T09:06:40.195Z,34.99
2018-07-13T09:09:14.601Z,32.38
2018-07-13T09:11:43.372Z,32.08
2018-07-13T09:14:12.267Z,32.53
2018-07-13T09:16:41.143Z,31.53
2018-07-13T09:19:09.988Z,33.90
2018-07-13T09:21:38.903Z,32.20
2018-07-13T09:24:07.822Z,33.52
2018-07-13T09:26:36.702Z,31.11
2018-07-13T09:29:05.535Z,31.31
2018-07-13T09:31:34.340Z,31.65
2018-07-13T09:34:03.158Z,32.73
2018-07-13T09:36:31.926Z,31.59
2018-07-13T09:39:00.803Z,33.07
2018-07-13T09:41:29.658Z,32.90
2018-07-13T09:43:58.534Z,31.83
2018-07-13T09:46:28.178Z,32.01
2018-07-13T09:48:57.089Z,29.75
2018-07-13T09:51:25.906Z,30.52
2018-07-13T09:53:54.837Z,31.23
2018-07-13T09:56:23.567Z,30.16
2018-07-13T09:58:52.333Z,28.53
2018-07-13T10:01:22.405Z,30.48
2018-07-13T10:03:51.157Z,29.41
2018-07-13T10:06:19.910Z,30.44
2018-07-13T10:08:48.710Z,30.69
2018-07-13T10:11:17.423Z,30.94
2018-07-13T10:13:46.243Z,30.63
2018-07-13T10:16:15.084Z,32.30
2018-07-13T10:18:44.008Z,32.82
2018-07-13T10:21:12.848Z,34.83
2018-07-13T10:23:42.492Z,34.05
2018-07-13T10:26:14.995Z,33.45
2018-07-13T10:28:44.008Z,31.55
2018-07-13T10:31:13.978Z,30.66
2018-07-13T10:33:43.048Z,29.25
2018-07-13T10:36:14.614Z,30.67
2018-07-13T10:38:43.477Z,28.58
2018-07-13T10:41:12.362Z,29.78
2018-07-13T10:43:41.472Z,29.45
2018-07-13T10:46:10.373Z,31.60
2018-07-13T10:48:39.161Z,31.05
2018-07-13T10:51:08.284Z,28.73
2018-07-13T10:53:37.094Z,29.33
2018-07-13T10:56:05.939Z,30.71
2018-07-13T10:58:34.803Z,33.35
2018-07-13T11:01:03.568Z,32.35
2018-07-13T11:03:32.395Z,30.03
2018-07-13T11:06:01.189Z,29.03
2018-07-13T11:08:30.014Z,30.64
2018-07-13T11:10:58.773Z,30.66
2018-07-13T11:13:27.682Z,29.81
2018-07-13T11:15:56.444Z,27.72
2018-07-13T11:18:25.171Z,30.05
2018-07-13T11:20:53.984Z,29.51
2018-07-13T11:23:22.769Z,29.31
2018-07-13T11:25:51.604Z,27.69
2018-07-13T11:28:20.434Z,30.65
2018-07-13T11:30:49.235Z,28.02
2018-07-13T11:33:18.060Z,26.38
2018-07-13T11:35:46.842Z,30.58
2018-07-13T11:38:15.702Z,31.55
2018-07-13T11:40:44.510Z,32.70
2018-07-13T11:43:13.365Z,31.75
2018-07-13T11:45:42.108Z,29.74
2018-07-13T11:48:10.854Z,29.33
2018-07-13T11:50:39.670Z,31.86
2018-07-13T11:53:08.430Z,30.49
2018-07-13T11:55:37.211Z,33.25
2018-07-13T11:58:05.932Z,32.89
2018-07-13T12:00:34.712Z,33.73
2018-07-13T12:03:04.202Z,36.63
2018-07-13T12:05:32.934Z,37.74
2018-07-13T12:08:01.659Z,35.39
2018-07-13T12:10:30.388Z,36.63
2018-07-13T12:12:59.112Z,36.65
2018-07-13T12:15:27.828Z,36.32
2018-07-13T12:17:56.546Z,35.97
2018-07-13T12:20:25.261Z,36.92
2018-07-13T12:22:54.061Z,35.89
2018-07-13T12:25:22.766Z,37.31
2018-07-13T12:27:51.546Z,35.37
2018-07-13T12:30:20.281Z,36.06
2018-07-13T12:32:49.029Z,40.12
2018-07-13T12:35:17.801Z,39.62
2018-07-13T12:37:46.526Z,40.58
2018-07-13T12:40:15.302Z,42.01
2018-07-13T12:42:44.028Z,42.26
2018-07-13T12:45:12.750Z,44.05
2018-07-13T12:47:41.495Z,45.12
2018-07-13T12:50:10.267Z,44.28
2018-07-13T12:52:39.017Z,44.57
2018-07-13T12:55:07.889Z,46.11
2018-07-13T12:57:36.675Z,43.46
2018-07-13T13:00:05.531Z,43.33
2018-07-13T13:02:34.285Z,43.83
2018-07-13T13:05:03.095Z,43.62
2018-07-13T13:07:31.994Z,44.59
2018-07-13T13:10:00.729Z,43.33
2018-07-13T13:12:29.501Z,44.30
2018-07-13T13:14:58.299Z,43.11
2018-07-13T13:17:27.048Z,43.10
2018-07-13T13:22:29.715Z,42.87
2018-07-13T13:24:58.456Z,43.68
2018-07-13T13:27:27.620Z,41.69
2018-07-13T13:29:56.351Z,44.77
2018-07-13T13:32:25.397Z,43.49
2018-07-13T13:34:54.435Z,42.80
2018-07-13T13:37:23.178Z,42.89
2018-07-13T13:39:51.954Z,44.22
2018-07-13T13:42:20.744Z,44.37
2018-07-13T13:44:49.467Z,44.71
2018-07-13T13:47:18.274Z,44.53
2018-07-13T13:49:46.999Z,42.95
2018-07-13T13:52:15.727Z,43.94
2018-07-13T13:54:44.454Z,43.51
2018-07-13T13:57:13.201Z,43.71
2018-07-13T13:59:41.966Z,44.03
2018-07-13T14:02:10.712Z,43.55
2018-07-13T14:04:39.479Z,42.75
2018-07-13T14:07:08.239Z,41.53
2018-07-13T14:09:36.933Z,43.24
2018-07-13T14:12:05.766Z,42.92
2018-07-13T14:14:34.512Z,42.02
2018-07-13T14:17:03.477Z,42.95
2018-07-13T14:19:32.217Z,43.68
2018-07-13T14:22:00.922Z,42.22
2018-07-13T14:24:29.717Z,44.52
2018-07-13T14:26:58.450Z,45.17
2018-07-13T14:29:27.169Z,44.98
2018-07-13T14:31:55.957Z,45.13
2018-07-13T14:34:24.699Z,44.30
2018-07-13T14:36:53.487Z,45.57
2018-07-13T14:39:22.240Z,44.97
2018-07-13T14:41:50.935Z,44.53
2018-07-13T14:44:19.688Z,43.01
2018-07-13T14:46:48.478Z,44.23
2018-07-13T14:49:17.570Z,42.94
2018-07-13T14:51:46.323Z,43.84
2018-07-13T14:54:15.160Z,43.61
2018-07-13T14:56:43.870Z,44.70
2018-07-13T14:59:12.586Z,43.65
2018-07-13T15:01:41.513Z,43.76
2018-07-13T15:04:10.232Z,44.23
2018-07-13T15:06:39.112Z,44.39
2018-07-13T15:09:07.979Z,44.57
2018-07-13T15:11:36.695Z,42.57
2018-07-13T15:14:05.524Z,44.03
2018-07-13T15:16:34.218Z,42.59
2018-07-13T15:19:03.141Z,41.85
2018-07-13T15:21:31.847Z,40.97
2018-07-13T15:24:00.577Z,42.78
2018-07-13T15:26:29.342Z,42.54
2018-07-13T15:28:58.264Z,41.14
2018-07-13T15:31:27.038Z,42.79
2018-07-13T15:33:55.774Z,43.21
2018-07-13T15:36:24.508Z,43.23
2018-07-13T15:38:53.310Z,43.07
2018-07-13T15:41:22.038Z,42.79
2018-07-13T15:43:50.866Z,43.48
2018-07-13T15:46:19.636Z,45.46
2018-07-13T15:48:48.366Z,46.02
2018-07-13T15:51:17.247Z,46.49
2018-07-13T15:53:45.982Z,46.54
2018-07-13T15:56:14.699Z,46.61
2018-07-13T15:58:43.554Z,46.41
2018-07-13T16:01:12.211Z,46.82
2018-07-13T16:03:41.004Z,47.99
2018-07-13T16:06:09.759Z,46.77
2018-07-13T16:08:38.540Z,46.77
2018-07-13T16:11:07.421Z,48.30
2018-07-13T16:13:36.148Z,48.62
2018-07-13T16:16:04.932Z,49.40
2018-07-13T16:18:33.664Z,48.41
2018-07-13T16:21:02.383Z,49.53
2018-07-13T16:23:31.194Z,50.01
2018-07-13T16:25:59.940Z,50.67
2018-07-13T16:28:28.738Z,50.76
2018-07-13T16:30:57.463Z,51.98
2018-07-13T16:33:26.628Z,52.07
2018-07-13T16:35:55.617Z,52.68
2018-07-13T16:38:24.358Z,52.91
2018-07-13T16:40:53.308Z,55.27
2018-07-13T16:43:22.088Z,53.49
2018-07-13T16:45:50.901Z,53.93
2018-07-13T16:48:19.689Z,54.52
2018-07-13T16:50:48.444Z,55.08
2018-07-13T16:53:17.208Z,54.58
2018-07-13T16:55:45.983Z,55.35
2018-07-13T16:58:14.724Z,56.69
2018-07-13T17:00:43.474Z,55.97
2018-07-13T17:03:12.283Z,56.87
2018-07-13T17:05:41.015Z,56.43
2018-07-13T17:08:09.981Z,56.16
2018-07-13T17:10:38.702Z,60.33
2018-07-13T17:13:07.408Z,59.29
2018-07-13T17:15:36.442Z,61.58
2018-07-13T17:18:05.240Z,58.83
2018-07-13T17:20:34.307Z,61.74
2018-07-13T17:23:02.918Z,61.38
2018-07-13T17:25:31.887Z,63.80
2018-07-13T17:28:00.848Z,63.26
2018-07-13T17:30:29.575Z,64.41
2018-07-13T17:32:58.317Z,65.91
2018-07-13T17:35:27.110Z,66.11
2018-07-13T17:37:55.957Z,66.60
2018-07-13T17:40:24.728Z,68.00
2018-07-13T17:42:53.848Z,68.37
2018-07-13T17:45:22.541Z,68.73
2018-07-13T17:47:51.306Z,71.00
2018-07-13T17:50:20.009Z,68.81
2018-07-13T17:52:48.726Z,70.05
2018-07-13T17:55:17.437Z,71.55
2018-07-13T17:57:46.181Z,72.90
2018-07-13T18:00:14.968Z,72.05
2018-07-13T18:02:43.717Z,72.83
2018-07-13T18:05:12.470Z,74.05
2018-07-13T18:07:41.227Z,74.47
2018-07-13T18:10:09.985Z,76.03
2018-07-13T18:12:38.891Z,76.60
2018-07-13T18:15:07.617Z,76.92
2018-07-13T18:17:36.355Z,76.64
2018-07-13T18:20:05.099Z,75.25
2018-07-13T18:22:33.862Z,75.58
2018-07-13T18:25:02.637Z,76.33
2018-07-13T18:27:31.397Z,74.54
2018-07-13T18:30:00.126Z,75.43
2018-07-13T18:32:28.867Z,75.85
2018-07-13T18:34:57.672Z,78.93
2018-07-13T18:37:26.476Z,78.87
2018-07-13T18:39:55.416Z,79.31
2018-07-13T18:42:24.193Z,77.49
2018-07-13T18:44:52.952Z,80.10
2018-07-13T18:47:21.735Z,80.43
2018-07-13T18:49:50.536Z,81.50
2018-07-13T18:52:19.291Z,80.45
2018-07-13T18:54:48.048Z,80.63
2018-07-13T18:57:16.808Z,82.14
2018-07-13T18:59:45.530Z,83.51
2018-07-13T19:02:14.322Z,80.93
2018-07-13T19:04:43.084Z,82.14
2018-07-13T19:07:11.839Z,81.92
2018-07-13T19:09:40.679Z,82.30
2018-07-13T19:12:09.432Z,83.04
2018-07-13T19:14:38.264Z,83.31
2018-07-13T19:17:07.046Z,84.02
2018-07-13T19:19:35.884Z,84.64
2018-07-13T19:22:04.745Z,83.61
2018-07-13T19:24:33.559Z,84.62
2018-07-13T19:27:07.588Z,86.43
2018-07-13T19:29:36.367Z,85.24
2018-07-13T19:32:05.132Z,85.45
2018-07-13T19:34:33.921Z,85.03
2018-07-13T19:37:02.726Z,86.08
2018-07-13T19:39:31.660Z,87.54
2018-07-13T19:42:00.447Z,88.96
2018-07-13T19:44:29.196Z,88.59
2018-07-13T19:46:57.962Z,89.45
2018-07-13T19:49:26.722Z,88.37
2018-07-13T19:51:55.445Z,88.14
2018-07-13T19:54:24.210Z,88.42
2018-07-13T19:56:52.972Z,88.93
2018-07-13T19:59:21.924Z,90.42
2018-07-13T20:01:50.681Z,90.40
2018-07-13T20:04:19.444Z,89.78
2018-07-13T20:06:48.239Z,89.86
2018-07-13T20:09:17.026Z,90.33
2018-07-13T20:11:45.809Z,89.87
2018-07-13T20:14:14.636Z,90.98
2018-07-13T20:16:43.581Z,90.46
2018-07-13T20:19:12.445Z,91.09
2018-07-13T20:21:41.211Z,90.61
2018-07-13T20:24:10.041Z,90.38
2018-07-13T20:26:38.801Z,90.99
2018-07-13T20:29:07.591Z,91.22
2018-07-13T20:31:36.371Z,90.96
2018-07-13T20:34:05.097Z,91.11
2018-07-13T20:36:33.865Z,92.27
2018-07-13T20:39:02.722Z,91.30
2018-07-13T20:41:31.442Z,91.44
2018-07-13T20:44:00.204Z,90.88
2018-07-13T20:46:28.918Z,90.55
2018-07-13T20:48:57.625Z,91.81
2018-07-13T20:51:26.411Z,90.92
2018-07-13T20:53:55.125Z,91.39
2018-07-13T20:56:23.911Z,92.57
2018-07-13T20:58:52.657Z,91.97
2018-07-13T21:01:21.404Z,92.37
2018-07-13T21:03:50.156Z,93.15
2018-07-13T21:06:18.886Z,93.39
2018-07-13T21:08:47.645Z,91.66
2018-07-13T21:11:16.350Z,92.80
2018-07-13T21:13:45.070Z,92.75
2018-07-13T21:16:13.806Z,93.98
2018-07-13T21:18:46.835Z,93.90
2018-07-13T21:21:19.062Z,95.03
2018-07-13T21:23:51.201Z,95.12
2018-07-13T21:26:23.631Z,94.16
2018-07-13T21:28:52.453Z,93.39
2018-07-13T21:31:21.197Z,92.10
2018-07-13T21:33:50.044Z,92.27
2018-07-13T21:36:18.760Z,92.70
2018-07-13T21:38:47.590Z,91.39
2018-07-13T21:41:16.354Z,91.00
2018-07-13T21:43:45.089Z,92.00
2018-07-13T21:46:16.802Z,93.55
2018-07-13T21:48:45.591Z,91.90
2018-07-13T21:51:14.382Z,92.85
2018-07-13T21:53:43.218Z,94.49
2018-07-13T21:56:11.969Z,93.13
2018-07-13T21:58:40.717Z,92.65
2018-07-13T22:01:09.421Z,90.18
2018-07-13T22:03:38.174Z,92.04
2018-07-13T22:06:06.884Z,92.91
2018-07-13T22:08:35.619Z,93.80
2018-07-13T22:11:04.357Z,93.63
2018-07-13T22:13:33.067Z,94.77
2018-07-13T22:16:01.821Z,95.06
2018-07-13T22:18:30.555Z,95.90
2018-07-13T22:20:59.450Z,94.77
2018-07-13T22:23:28.305Z,92.80
2018-07-13T22:25:57.528Z,92.10
2018-07-13T22:28:26.469Z,91.89
2018-07-13T22:30:55.453Z,92.29
2018-07-13T22:33:24.176Z,93.88
2018-07-13T22:35:52.888Z,93.00
2018-07-13T22:38:21.644Z,94.47
2018-07-13T22:40:50.447Z,95.51
2018-07-13T22:43:19.175Z,95.12
2018-07-13T22:45:47.888Z,94.17
2018-07-13T22:48:16.629Z,93.76
2018-07-13T22:50:45.370Z,93.60
2018-07-13T22:53:14.150Z,93.79
2018-07-13T22:55:43.026Z,93.91
2018-07-13T22:58:11.734Z,93.86
2018-07-13T23:00:40.449Z,93.46
2018-07-13T23:03:09.167Z,94.16
2018-07-13T23:05:37.909Z,94.04
2018-07-13T23:08:06.609Z,93.88
2018-07-13T23:10:35.353Z,94.50
2018-07-13T23:13:04.085Z,94.12
2018-07-13T23:15:32.885Z,93.89
2018-07-13T23:18:01.683Z,93.47
2018-07-13T23:20:30.396Z,93.81
2018-07-13T23:22:59.101Z,92.70
2018-07-13T23:25:27.814Z,93.43
2018-07-13T23:27:56.515Z,93.57
2018-07-13T23:30:25.262Z,94.03
2018-07-13T23:32:53.970Z,93.05
2018-07-13T23:35:22.675Z,93.54
2018-07-13T23:37:51.457Z,93.93
2018-07-13T23:40:20.177Z,91.83
2018-07-13T23:42:49.159Z,92.44
2018-07-13T23:45:17.893Z,91.89
2018-07-13T23:47:46.604Z,92.32
2018-07-13T23:50:15.333Z,91.95
2018-07-13T23:52:44.049Z,94.74
2018-07-13T23:55:12.813Z,95.99
2018-07-13T23:57:41.610Z,93.81
